sensor_id;sensor_type;location;lat;lon;timestamp;P1;durP1;ratioP1;P2;durP2;ratioP2
4106;SDS011;21906;50.812;7.132;2024-01-16T00:01:14;17.57;;;7.57;;
4106;SDS011;21906;50.812;7.132;2024-01-16T00:03:41;13.87;;;7.10;;
4106;SDS011;21906;50.812;7.132;2024-01-16T00:06:07;10.43;;;7.00;;
4106;SDS011;21906;50.812;7.132;2024-01-16T00:08:33;12.77;;;6.70;;
4106;SDS011;21906;50.812;7.132;2024-01-16T00:10:58;13.00;;;7.13;;
4106;SDS011;21906;50.812;7.132;2024-01-16T00:13:26;14.50;;;6.90;;
4106;SDS011;21906;50.812;7.132;2024-01-16T00:15:52;8.90;;;6.43;;
4106;SDS011;21906;50.812;7.132;2024-01-16T00:18:18;12.80;;;7.40;;
4106;SDS011;21906;50.812;7.132;2024-01-16T00:20:43;12.23;;;7.60;;
4106;SDS011;21906;50.812;7.132;2024-01-16T00:23:09;11.17;;;8.10;;
4106;SDS011;21906;50.812;7.132;2024-01-16T00:25:35;12.70;;;8.07;;
4106;SDS011;21906;50.812;7.132;2024-01-16T00:28:01;12.00;;;8.10;;
4106;SDS011;21906;50.812;7.132;2024-01-16T00:30:27;12.70;;;7.70;;
4106;SDS011;21906;50.812;7.132;2024-01-16T00:32:54;12.33;;;7.63;;
4106;SDS011;21906;50.812;7.132;2024-01-16T00:35:20;13.70;;;7.27;;
4106;SDS011;21906;50.812;7.132;2024-01-16T00:37:46;12.00;;;7.47;;
4106;SDS011;21906;50.812;7.132;2024-01-16T00:40:11;11.57;;;8.70;;
4106;SDS011;21906;50.812;7.132;2024-01-16T00:42:37;10.87;;;7.50;;
4106;SDS011;21906;50.812;7.132;2024-01-16T00:45:03;10.50;;;7.47;;
4106;SDS011;21906;50.812;7.132;2024-01-16T00:47:29;12.83;;;7.73;;
4106;SDS011;21906;50.812;7.132;2024-01-16T00:49:55;11.87;;;6.90;;
4106;SDS011;21906;50.812;7.132;2024-01-16T00:52:21;9.60;;;7.20;;
4106;SDS011;21906;50.812;7.132;2024-01-16T00:54:46;8.40;;;6.80;;
4106;SDS011;21906;50.812;7.132;2024-01-16T00:57:12;10.83;;;7.50;;
4106;SDS011;21906;50.812;7.132;2024-01-16T00:59:40;11.80;;;6.47;;
4106;SDS011;21906;50.812;7.132;2024-01-16T01:02:06;11.13;;;6.97;;
4106;SDS011;21906;50.812;7.132;2024-01-16T01:04:34;11.03;;;6.93;;
4106;SDS011;21906;50.812;7.132;2024-01-16T01:07:00;8.80;;;7.00;;
4106;SDS011;21906;50.812;7.132;2024-01-16T01:09:26;9.40;;;6.33;;
4106;SDS011;21906;50.812;7.132;2024-01-16T01:11:52;12.00;;;6.43;;
4106;SDS011;21906;50.812;7.132;2024-01-16T01:14:17;13.57;;;7.13;;
4106;SDS011;21906;50.812;7.132;2024-01-16T01:16:43;9.40;;;6.80;;
4106;SDS011;21906;50.812;7.132;2024-01-16T01:19:09;14.80;;;7.80;;
4106;SDS011;21906;50.812;7.132;2024-01-16T01:21:35;8.70;;;6.30;;
4106;SDS011;21906;50.812;7.132;2024-01-16T01:24:01;11.03;;;6.67;;
4106;SDS011;21906;50.812;7.132;2024-01-16T01:26:26;8.00;;;5.77;;
4106;SDS011;21906;50.812;7.132;2024-01-16T01:28:52;10.87;;;6.60;;
4106;SDS011;21906;50.812;7.132;2024-01-16T01:31:18;10.13;;;6.40;;
4106;SDS011;21906;50.812;7.132;2024-01-16T01:33:43;10.00;;;6.50;;
4106;SDS011;21906;50.812;7.132;2024-01-16T01:36:09;9.20;;;6.10;;
4106;SDS011;21906;50.812;7.132;2024-01-16T01:38:35;8.50;;;5.77;;
4106;SDS011;21906;50.812;7.132;2024-01-16T01:41:00;10.23;;;6.03;;
4106;SDS011;21906;50.812;7.132;2024-01-16T01:43:26;7.80;;;5.70;;
4106;SDS011;21906;50.812;7.132;2024-01-16T01:48:42;10.60;;;5.60;;
4106;SDS011;21906;50.812;7.132;2024-01-16T01:51:09;7.30;;;5.70;;
4106;SDS011;21906;50.812;7.132;2024-01-16T01:53:35;8.90;;;6.00;;
4106;SDS011;21906;50.812;7.132;2024-01-16T01:56:03;11.60;;;6.70;;
4106;SDS011;21906;50.812;7.132;2024-01-16T01:58:32;8.77;;;6.37;;
4106;SDS011;21906;50.812;7.132;2024-01-16T02:00:59;8.77;;;5.87;;
4106;SDS011;21906;50.812;7.132;2024-01-16T02:03:26;7.40;;;5.17;;
4106;SDS011;21906;50.812;7.132;2024-01-16T02:05:55;7.97;;;6.03;;
4106;SDS011;21906;50.812;7.132;2024-01-16T02:08:21;8.37;;;5.63;;
4106;SDS011;21906;50.812;7.132;2024-01-16T02:10:47;7.33;;;6.07;;
4106;SDS011;21906;50.812;7.132;2024-01-16T02:13:15;12.37;;;6.90;;
4106;SDS011;21906;50.812;7.132;2024-01-16T02:15:43;6.60;;;5.90;;
4106;SDS011;21906;50.812;7.132;2024-01-16T02:18:09;10.93;;;6.00;;
4106;SDS011;21906;50.812;7.132;2024-01-16T02:20:35;10.73;;;6.63;;
4106;SDS011;21906;50.812;7.132;2024-01-16T02:23:02;6.77;;;5.97;;
4106;SDS011;21906;50.812;7.132;2024-01-16T02:25:29;10.73;;;6.47;;
4106;SDS011;21906;50.812;7.132;2024-01-16T02:27:55;8.57;;;6.90;;
4106;SDS011;21906;50.812;7.132;2024-01-16T02:30:21;13.60;;;7.03;;
4106;SDS011;21906;50.812;7.132;2024-01-16T02:32:49;10.03;;;6.53;;
4106;SDS011;21906;50.812;7.132;2024-01-16T02:35:15;10.70;;;7.20;;
4106;SDS011;21906;50.812;7.132;2024-01-16T02:37:42;14.13;;;7.40;;
4106;SDS011;21906;50.812;7.132;2024-01-16T02:40:07;11.30;;;7.00;;
4106;SDS011;21906;50.812;7.132;2024-01-16T02:42:34;11.30;;;6.90;;
4106;SDS011;21906;50.812;7.132;2024-01-16T02:45:03;9.20;;;7.33;;
4106;SDS011;21906;50.812;7.132;2024-01-16T02:47:32;10.00;;;6.40;;
4106;SDS011;21906;50.812;7.132;2024-01-16T02:49:58;15.30;;;7.27;;
4106;SDS011;21906;50.812;7.132;2024-01-16T02:52:24;10.40;;;7.03;;
4106;SDS011;21906;50.812;7.132;2024-01-16T02:54:50;15.63;;;7.13;;
4106;SDS011;21906;50.812;7.132;2024-01-16T02:57:16;12.47;;;7.00;;
4106;SDS011;21906;50.812;7.132;2024-01-16T02:59:45;11.30;;;6.97;;
4106;SDS011;21906;50.812;7.132;2024-01-16T03:02:10;12.20;;;7.70;;
4106;SDS011;21906;50.812;7.132;2024-01-16T03:04:36;13.10;;;6.80;;
4106;SDS011;21906;50.812;7.132;2024-01-16T03:07:02;9.23;;;6.20;;
4106;SDS011;21906;50.812;7.132;2024-01-16T03:09:28;11.83;;;6.97;;
4106;SDS011;21906;50.812;7.132;2024-01-16T03:11:54;12.03;;;7.13;;
4106;SDS011;21906;50.812;7.132;2024-01-16T03:14:20;9.17;;;6.40;;
4106;SDS011;21906;50.812;7.132;2024-01-16T03:16:46;13.80;;;7.37;;
4106;SDS011;21906;50.812;7.132;2024-01-16T03:19:11;13.73;;;6.83;;
4106;SDS011;21906;50.812;7.132;2024-01-16T03:21:37;11.67;;;6.50;;
4106;SDS011;21906;50.812;7.132;2024-01-16T03:24:04;7.43;;;6.23;;
4106;SDS011;21906;50.812;7.132;2024-01-16T03:26:31;10.37;;;7.20;;
4106;SDS011;21906;50.812;7.132;2024-01-16T03:28:57;17.20;;;6.80;;
4106;SDS011;21906;50.812;7.132;2024-01-16T03:31:23;13.23;;;7.23;;
4106;SDS011;21906;50.812;7.132;2024-01-16T03:33:49;13.20;;;7.47;;
4106;SDS011;21906;50.812;7.132;2024-01-16T03:36:14;9.53;;;6.80;;
4106;SDS011;21906;50.812;7.132;2024-01-16T03:38:42;8.90;;;7.07;;
4106;SDS011;21906;50.812;7.132;2024-01-16T03:41:08;12.60;;;7.20;;
4106;SDS011;21906;50.812;7.132;2024-01-16T03:43:35;11.37;;;7.20;;
4106;SDS011;21906;50.812;7.132;2024-01-16T03:46:01;10.33;;;6.20;;
4106;SDS011;21906;50.812;7.132;2024-01-16T03:48:27;12.57;;;7.70;;
4106;SDS011;21906;50.812;7.132;2024-01-16T03:50:53;12.03;;;7.00;;
4106;SDS011;21906;50.812;7.132;2024-01-16T03:53:19;10.87;;;7.23;;
4106;SDS011;21906;50.812;7.132;2024-01-16T03:55:46;7.80;;;6.57;;
4106;SDS011;21906;50.812;7.132;2024-01-16T03:58:12;10.00;;;7.53;;
4106;SDS011;21906;50.812;7.132;2024-01-16T04:00:38;11.40;;;7.10;;
4106;SDS011;21906;50.812;7.132;2024-01-16T04:03:03;14.47;;;7.53;;
4106;SDS011;21906;50.812;7.132;2024-01-16T04:05:30;9.40;;;7.40;;
4106;SDS011;21906;50.812;7.132;2024-01-16T04:07:56;12.50;;;7.90;;
4106;SDS011;21906;50.812;7.132;2024-01-16T04:10:22;17.40;;;8.00;;
4106;SDS011;21906;50.812;7.132;2024-01-16T04:12:48;10.70;;;7.63;;
4106;SDS011;21906;50.812;7.132;2024-01-16T04:15:14;15.60;;;8.40;;
4106;SDS011;21906;50.812;7.132;2024-01-16T04:17:40;17.93;;;8.47;;
4106;SDS011;21906;50.812;7.132;2024-01-16T04:20:05;11.73;;;8.10;;
4106;SDS011;21906;50.812;7.132;2024-01-16T04:22:34;10.67;;;8.30;;
4106;SDS011;21906;50.812;7.132;2024-01-16T04:25:00;12.83;;;8.40;;
4106;SDS011;21906;50.812;7.132;2024-01-16T04:27:26;14.73;;;7.97;;
4106;SDS011;21906;50.812;7.132;2024-01-16T04:29:52;15.53;;;8.80;;
4106;SDS011;21906;50.812;7.132;2024-01-16T04:32:18;12.13;;;8.50;;
4106;SDS011;21906;50.812;7.132;2024-01-16T04:34:44;10.90;;;8.30;;
4106;SDS011;21906;50.812;7.132;2024-01-16T04:37:09;14.13;;;8.87;;
4106;SDS011;21906;50.812;7.132;2024-01-16T04:39:35;10.47;;;8.60;;
4106;SDS011;21906;50.812;7.132;2024-01-16T04:42:00;10.50;;;8.00;;
4106;SDS011;21906;50.812;7.132;2024-01-16T04:44:26;13.60;;;8.20;;
4106;SDS011;21906;50.812;7.132;2024-01-16T04:46:52;10.43;;;8.13;;
4106;SDS011;21906;50.812;7.132;2024-01-16T04:49:17;11.20;;;8.20;;
4106;SDS011;21906;50.812;7.132;2024-01-16T04:51:43;13.03;;;8.40;;
4106;SDS011;21906;50.812;7.132;2024-01-16T04:54:10;11.90;;;7.80;;
4106;SDS011;21906;50.812;7.132;2024-01-16T04:56:37;11.03;;;8.37;;
4106;SDS011;21906;50.812;7.132;2024-01-16T04:59:02;9.97;;;7.57;;
4106;SDS011;21906;50.812;7.132;2024-01-16T05:01:28;11.40;;;7.50;;
4106;SDS011;21906;50.812;7.132;2024-01-16T05:03:57;9.57;;;7.20;;
4106;SDS011;21906;50.812;7.132;2024-01-16T05:06:22;11.97;;;7.20;;
4106;SDS011;21906;50.812;7.132;2024-01-16T05:08:48;9.87;;;7.63;;
4106;SDS011;21906;50.812;7.132;2024-01-16T05:11:14;10.40;;;7.60;;
4106;SDS011;21906;50.812;7.132;2024-01-16T05:13:39;9.40;;;7.67;;
4106;SDS011;21906;50.812;7.132;2024-01-16T05:16:05;8.57;;;7.27;;
4106;SDS011;21906;50.812;7.132;2024-01-16T05:18:31;9.90;;;7.13;;
4106;SDS011;21906;50.812;7.132;2024-01-16T05:20:59;9.50;;;6.57;;
4106;SDS011;21906;50.812;7.132;2024-01-16T05:23:25;10.70;;;6.80;;
4106;SDS011;21906;50.812;7.132;2024-01-16T05:25:51;13.07;;;7.43;;
4106;SDS011;21906;50.812;7.132;2024-01-16T05:28:17;12.60;;;6.70;;
4106;SDS011;21906;50.812;7.132;2024-01-16T05:30:42;7.07;;;6.30;;
4106;SDS011;21906;50.812;7.132;2024-01-16T05:33:08;8.93;;;6.60;;
4106;SDS011;21906;50.812;7.132;2024-01-16T05:35:34;10.23;;;6.97;;
4106;SDS011;21906;50.812;7.132;2024-01-16T05:37:59;10.00;;;7.03;;
4106;SDS011;21906;50.812;7.132;2024-01-16T05:40:25;11.93;;;7.30;;
4106;SDS011;21906;50.812;7.132;2024-01-16T05:42:51;11.13;;;6.87;;
4106;SDS011;21906;50.812;7.132;2024-01-16T05:45:17;12.27;;;7.03;;
4106;SDS011;21906;50.812;7.132;2024-01-16T05:47:43;14.33;;;7.17;;
4106;SDS011;21906;50.812;7.132;2024-01-16T05:50:09;8.80;;;6.60;;
4106;SDS011;21906;50.812;7.132;2024-01-16T05:52:35;14.47;;;8.03;;
4106;SDS011;21906;50.812;7.132;2024-01-16T05:55:01;9.83;;;6.40;;
4106;SDS011;21906;50.812;7.132;2024-01-16T05:57:28;13.17;;;6.93;;
4106;SDS011;21906;50.812;7.132;2024-01-16T05:59:56;12.07;;;6.30;;
4106;SDS011;21906;50.812;7.132;2024-01-16T06:02:22;8.83;;;6.93;;
4106;SDS011;21906;50.812;7.132;2024-01-16T06:04:47;13.03;;;6.20;;
4106;SDS011;21906;50.812;7.132;2024-01-16T06:07:13;10.90;;;7.27;;
4106;SDS011;21906;50.812;7.132;2024-01-16T06:09:39;8.27;;;6.63;;
4106;SDS011;21906;50.812;7.132;2024-01-16T06:12:05;9.73;;;6.47;;
4106;SDS011;21906;50.812;7.132;2024-01-16T06:14:32;8.37;;;6.30;;
4106;SDS011;21906;50.812;7.132;2024-01-16T06:16:58;8.10;;;6.83;;
4106;SDS011;21906;50.812;7.132;2024-01-16T06:19:24;13.20;;;6.43;;
4106;SDS011;21906;50.812;7.132;2024-01-16T06:21:50;10.10;;;6.67;;
4106;SDS011;21906;50.812;7.132;2024-01-16T06:24:18;10.10;;;6.70;;
4106;SDS011;21906;50.812;7.132;2024-01-16T06:26:44;12.97;;;5.80;;
4106;SDS011;21906;50.812;7.132;2024-01-16T06:29:10;14.43;;;6.20;;
4106;SDS011;21906;50.812;7.132;2024-01-16T06:31:35;13.57;;;5.87;;
4106;SDS011;21906;50.812;7.132;2024-01-16T06:34:01;6.23;;;5.47;;
4106;SDS011;21906;50.812;7.132;2024-01-16T06:36:27;8.77;;;5.70;;
4106;SDS011;21906;50.812;7.132;2024-01-16T06:38:53;12.60;;;6.17;;
4106;SDS011;21906;50.812;7.132;2024-01-16T06:41:18;8.10;;;5.30;;
4106;SDS011;21906;50.812;7.132;2024-01-16T06:43:44;7.17;;;5.40;;
4106;SDS011;21906;50.812;7.132;2024-01-16T06:46:10;7.40;;;5.20;;
4106;SDS011;21906;50.812;7.132;2024-01-16T06:48:35;10.20;;;5.90;;
4106;SDS011;21906;50.812;7.132;2024-01-16T06:51:05;8.17;;;5.13;;
4106;SDS011;21906;50.812;7.132;2024-01-16T06:53:30;8.10;;;5.07;;
4106;SDS011;21906;50.812;7.132;2024-01-16T06:55:56;9.33;;;5.67;;
4106;SDS011;21906;50.812;7.132;2024-01-16T06:58:22;9.60;;;6.60;;
4106;SDS011;21906;50.812;7.132;2024-01-16T07:00:47;8.87;;;4.60;;
4106;SDS011;21906;50.812;7.132;2024-01-16T07:03:13;7.00;;;5.33;;
4106;SDS011;21906;50.812;7.132;2024-01-16T07:05:40;8.77;;;5.10;;
4106;SDS011;21906;50.812;7.132;2024-01-16T07:08:09;5.93;;;4.90;;
4106;SDS011;21906;50.812;7.132;2024-01-16T07:10:35;8.90;;;5.30;;
4106;SDS011;21906;50.812;7.132;2024-01-16T07:13:01;7.50;;;4.50;;
4106;SDS011;21906;50.812;7.132;2024-01-16T07:15:27;8.10;;;5.73;;
4106;SDS011;21906;50.812;7.132;2024-01-16T07:17:53;14.70;;;4.77;;
4106;SDS011;21906;50.812;7.132;2024-01-16T07:20:18;5.47;;;4.20;;
4106;SDS011;21906;50.812;7.132;2024-01-16T07:22:44;15.97;;;4.40;;
4106;SDS011;21906;50.812;7.132;2024-01-16T07:25:10;10.73;;;4.60;;
4106;SDS011;21906;50.812;7.132;2024-01-16T07:27:36;8.07;;;4.30;;
4106;SDS011;21906;50.812;7.132;2024-01-16T07:30:05;9.67;;;4.63;;
4106;SDS011;21906;50.812;7.132;2024-01-16T07:32:31;7.47;;;4.03;;
4106;SDS011;21906;50.812;7.132;2024-01-16T07:34:57;13.20;;;4.60;;
4106;SDS011;21906;50.812;7.132;2024-01-16T07:37:23;7.03;;;4.00;;
4106;SDS011;21906;50.812;7.132;2024-01-16T07:39:48;8.40;;;4.43;;
4106;SDS011;21906;50.812;7.132;2024-01-16T07:42:14;7.50;;;4.33;;
4106;SDS011;21906;50.812;7.132;2024-01-16T07:44:40;5.40;;;4.23;;
4106;SDS011;21906;50.812;7.132;2024-01-16T07:47:05;4.60;;;3.63;;
4106;SDS011;21906;50.812;7.132;2024-01-16T07:49:31;5.60;;;3.70;;
4106;SDS011;21906;50.812;7.132;2024-01-16T07:51:57;4.70;;;3.73;;
4106;SDS011;21906;50.812;7.132;2024-01-16T07:54:22;8.70;;;3.67;;
4106;SDS011;21906;50.812;7.132;2024-01-16T07:56:51;7.40;;;2.90;;
4106;SDS011;21906;50.812;7.132;2024-01-16T07:59:16;6.10;;;2.90;;
4106;SDS011;21906;50.812;7.132;2024-01-16T08:01:43;5.50;;;3.87;;
4106;SDS011;21906;50.812;7.132;2024-01-16T08:04:09;5.57;;;3.30;;
4106;SDS011;21906;50.812;7.132;2024-01-16T08:06:35;6.63;;;3.40;;
4106;SDS011;21906;50.812;7.132;2024-01-16T08:09:01;4.50;;;2.97;;
4106;SDS011;21906;50.812;7.132;2024-01-16T08:11:27;3.60;;;2.83;;
4106;SDS011;21906;50.812;7.132;2024-01-16T08:13:54;4.83;;;2.93;;
4106;SDS011;21906;50.812;7.132;2024-01-16T08:16:20;3.53;;;2.77;;
4106;SDS011;21906;50.812;7.132;2024-01-16T08:18:46;3.43;;;2.53;;
4106;SDS011;21906;50.812;7.132;2024-01-16T08:21:12;5.70;;;3.27;;
4106;SDS011;21906;50.812;7.132;2024-01-16T08:23:38;10.70;;;3.43;;
4106;SDS011;21906;50.812;7.132;2024-01-16T08:26:04;5.63;;;3.43;;
4106;SDS011;21906;50.812;7.132;2024-01-16T08:28:30;5.17;;;3.20;;
4106;SDS011;21906;50.812;7.132;2024-01-16T08:30:56;3.40;;;3.10;;
4106;SDS011;21906;50.812;7.132;2024-01-16T08:33:21;5.30;;;3.00;;
4106;SDS011;21906;50.812;7.132;2024-01-16T08:35:47;3.93;;;2.70;;
4106;SDS011;21906;50.812;7.132;2024-01-16T08:38:13;7.20;;;2.93;;
4106;SDS011;21906;50.812;7.132;2024-01-16T08:40:39;7.27;;;2.87;;
4106;SDS011;21906;50.812;7.132;2024-01-16T08:43:05;4.90;;;2.87;;
4106;SDS011;21906;50.812;7.132;2024-01-16T08:45:30;5.60;;;2.97;;
4106;SDS011;21906;50.812;7.132;2024-01-16T08:47:56;4.03;;;2.60;;
4106;SDS011;21906;50.812;7.132;2024-01-16T08:50:23;6.73;;;2.60;;
4106;SDS011;21906;50.812;7.132;2024-01-16T08:52:48;4.70;;;2.70;;
4106;SDS011;21906;50.812;7.132;2024-01-16T08:55:14;5.10;;;3.00;;
4106;SDS011;21906;50.812;7.132;2024-01-16T08:57:40;6.40;;;2.70;;
4106;SDS011;21906;50.812;7.132;2024-01-16T09:00:07;2.67;;;2.43;;
4106;SDS011;21906;50.812;7.132;2024-01-16T09:02:35;4.93;;;2.70;;
4106;SDS011;21906;50.812;7.132;2024-01-16T09:05:01;5.23;;;3.67;;
4106;SDS011;21906;50.812;7.132;2024-01-16T09:07:27;3.83;;;2.93;;
4106;SDS011;21906;50.812;7.132;2024-01-16T09:09:53;5.00;;;3.00;;
4106;SDS011;21906;50.812;7.132;2024-01-16T09:12:19;8.57;;;3.33;;
4106;SDS011;21906;50.812;7.132;2024-01-16T09:14:45;4.93;;;3.00;;
4106;SDS011;21906;50.812;7.132;2024-01-16T09:17:11;8.77;;;2.97;;
4106;SDS011;21906;50.812;7.132;2024-01-16T09:19:36;3.87;;;3.03;;
4106;SDS011;21906;50.812;7.132;2024-01-16T09:22:02;8.43;;;3.10;;
4106;SDS011;21906;50.812;7.132;2024-01-16T09:24:29;3.83;;;2.87;;
4106;SDS011;21906;50.812;7.132;2024-01-16T09:26:55;6.53;;;2.97;;
4106;SDS011;21906;50.812;7.132;2024-01-16T09:29:23;5.70;;;3.27;;
4106;SDS011;21906;50.812;7.132;2024-01-16T09:31:49;6.67;;;3.50;;
4106;SDS011;21906;50.812;7.132;2024-01-16T09:34:15;4.30;;;3.50;;
4106;SDS011;21906;50.812;7.132;2024-01-16T09:36:42;4.30;;;3.10;;
4106;SDS011;21906;50.812;7.132;2024-01-16T09:39:08;8.00;;;3.53;;
4106;SDS011;21906;50.812;7.132;2024-01-16T09:41:36;3.70;;;2.93;;
4106;SDS011;21906;50.812;7.132;2024-01-16T09:44:02;7.37;;;3.30;;
4106;SDS011;21906;50.812;7.132;2024-01-16T09:46:29;5.67;;;3.40;;
4106;SDS011;21906;50.812;7.132;2024-01-16T09:48:56;4.40;;;3.33;;
4106;SDS011;21906;50.812;7.132;2024-01-16T09:51:25;8.60;;;3.23;;
4106;SDS011;21906;50.812;7.132;2024-01-16T09:53:51;7.00;;;3.37;;
4106;SDS011;21906;50.812;7.132;2024-01-16T09:56:18;6.17;;;3.23;;
4106;SDS011;21906;50.812;7.132;2024-01-16T09:58:48;4.77;;;3.13;;
4106;SDS011;21906;50.812;7.132;2024-01-16T10:01:15;5.30;;;3.17;;
4106;SDS011;21906;50.812;7.132;2024-01-16T10:03:44;5.90;;;3.17;;
4106;SDS011;21906;50.812;7.132;2024-01-16T10:06:10;4.13;;;3.10;;
4106;SDS011;21906;50.812;7.132;2024-01-16T10:08:37;4.77;;;2.73;;
4106;SDS011;21906;50.812;7.132;2024-01-16T10:11:03;4.90;;;2.70;;
4106;SDS011;21906;50.812;7.132;2024-01-16T10:13:29;4.93;;;3.00;;
4106;SDS011;21906;50.812;7.132;2024-01-16T10:15:58;7.60;;;3.30;;
4106;SDS011;21906;50.812;7.132;2024-01-16T10:18:27;3.90;;;2.80;;
4106;SDS011;21906;50.812;7.132;2024-01-16T10:20:59;6.23;;;3.00;;
4106;SDS011;21906;50.812;7.132;2024-01-16T10:23:28;5.03;;;3.30;;
4106;SDS011;21906;50.812;7.132;2024-01-16T10:26:05;4.17;;;2.60;;
4106;SDS011;21906;50.812;7.132;2024-01-16T10:28:35;4.63;;;2.70;;
4106;SDS011;21906;50.812;7.132;2024-01-16T10:31:04;9.83;;;3.00;;
4106;SDS011;21906;50.812;7.132;2024-01-16T10:33:30;3.30;;;2.83;;
4106;SDS011;21906;50.812;7.132;2024-01-16T10:38:36;4.07;;;2.93;;
4106;SDS011;21906;50.812;7.132;2024-01-16T10:43:35;5.33;;;3.20;;
4106;SDS011;21906;50.812;7.132;2024-01-16T10:46:12;3.57;;;2.67;;
4106;SDS011;21906;50.812;7.132;2024-01-16T10:48:45;2.70;;;2.20;;
4106;SDS011;21906;50.812;7.132;2024-01-16T10:51:30;5.03;;;3.20;;
4106;SDS011;21906;50.812;7.132;2024-01-16T10:54:03;5.23;;;2.90;;
4106;SDS011;21906;50.812;7.132;2024-01-16T10:56:36;7.87;;;2.67;;
4106;SDS011;21906;50.812;7.132;2024-01-16T11:01:51;4.43;;;2.23;;
4106;SDS011;21906;50.812;7.132;2024-01-16T11:04:20;3.23;;;2.50;;
4106;SDS011;21906;50.812;7.132;2024-01-16T11:06:51;4.23;;;2.77;;
4106;SDS011;21906;50.812;7.132;2024-01-16T11:09:18;8.13;;;2.60;;
4106;SDS011;21906;50.812;7.132;2024-01-16T11:11:45;3.50;;;2.30;;
4106;SDS011;21906;50.812;7.132;2024-01-16T11:14:15;5.50;;;2.77;;
4106;SDS011;21906;50.812;7.132;2024-01-16T11:16:42;3.43;;;2.90;;
4106;SDS011;21906;50.812;7.132;2024-01-16T11:19:08;6.50;;;2.80;;
4106;SDS011;21906;50.812;7.132;2024-01-16T11:21:37;13.00;;;2.63;;
4106;SDS011;21906;50.812;7.132;2024-01-16T11:24:04;5.90;;;2.30;;
4106;SDS011;21906;50.812;7.132;2024-01-16T11:26:31;4.47;;;2.57;;
4106;SDS011;21906;50.812;7.132;2024-01-16T11:29:49;5.50;;;2.63;;
4106;SDS011;21906;50.812;7.132;2024-01-16T11:31:53;3.53;;;2.80;;
4106;SDS011;21906;50.812;7.132;2024-01-16T11:37:29;9.60;;;2.77;;
4106;SDS011;21906;50.812;7.132;2024-01-16T11:42:51;3.67;;;2.23;;
4106;SDS011;21906;50.812;7.132;2024-01-16T11:48:11;3.27;;;2.47;;
4106;SDS011;21906;50.812;7.132;2024-01-16T11:50:41;4.13;;;2.27;;
4106;SDS011;21906;50.812;7.132;2024-01-16T11:53:08;3.80;;;2.67;;
4106;SDS011;21906;50.812;7.132;2024-01-16T11:55:34;2.57;;;2.00;;
4106;SDS011;21906;50.812;7.132;2024-01-16T11:58:24;3.80;;;2.43;;
4106;SDS011;21906;50.812;7.132;2024-01-16T12:01:10;3.33;;;2.07;;
4106;SDS011;21906;50.812;7.132;2024-01-16T12:03:37;4.27;;;2.47;;
4106;SDS011;21906;50.812;7.132;2024-01-16T12:06:03;4.63;;;2.33;;
4106;SDS011;21906;50.812;7.132;2024-01-16T12:08:31;5.10;;;2.43;;
4106;SDS011;21906;50.812;7.132;2024-01-16T12:10:57;6.10;;;2.47;;
4106;SDS011;21906;50.812;7.132;2024-01-16T12:13:24;2.47;;;2.27;;
4106;SDS011;21906;50.812;7.132;2024-01-16T12:16:03;4.27;;;2.67;;
4106;SDS011;21906;50.812;7.132;2024-01-16T12:18:29;4.90;;;2.67;;
4106;SDS011;21906;50.812;7.132;2024-01-16T12:20:55;2.57;;;2.30;;
4106;SDS011;21906;50.812;7.132;2024-01-16T12:23:21;3.93;;;2.87;;
4106;SDS011;21906;50.812;7.132;2024-01-16T12:25:51;6.83;;;3.03;;
4106;SDS011;21906;50.812;7.132;2024-01-16T12:28:24;4.67;;;2.93;;
4106;SDS011;21906;50.812;7.132;2024-01-16T12:30:50;5.30;;;2.90;;
4106;SDS011;21906;50.812;7.132;2024-01-16T12:33:21;8.03;;;2.87;;
4106;SDS011;21906;50.812;7.132;2024-01-16T12:35:47;3.90;;;2.97;;
4106;SDS011;21906;50.812;7.132;2024-01-16T12:38:14;4.63;;;2.80;;
4106;SDS011;21906;50.812;7.132;2024-01-16T12:40:50;3.90;;;2.50;;
4106;SDS011;21906;50.812;7.132;2024-01-16T12:43:17;4.80;;;3.00;;
4106;SDS011;21906;50.812;7.132;2024-01-16T12:45:46;3.70;;;2.20;;
4106;SDS011;21906;50.812;7.132;2024-01-16T12:48:26;6.23;;;2.80;;
4106;SDS011;21906;50.812;7.132;2024-01-16T12:50:58;4.93;;;2.97;;
4106;SDS011;21906;50.812;7.132;2024-01-16T12:53:27;3.73;;;2.40;;
4106;SDS011;21906;50.812;7.132;2024-01-16T12:56:00;4.80;;;2.90;;
4106;SDS011;21906;50.812;7.132;2024-01-16T12:58:34;5.30;;;2.97;;
4106;SDS011;21906;50.812;7.132;2024-01-16T13:01:21;2.80;;;2.33;;
4106;SDS011;21906;50.812;7.132;2024-01-16T13:03:48;3.00;;;2.40;;
4106;SDS011;21906;50.812;7.132;2024-01-16T13:06:19;3.67;;;2.67;;
4106;SDS011;21906;50.812;7.132;2024-01-16T13:08:50;9.40;;;2.40;;
4106;SDS011;21906;50.812;7.132;2024-01-16T13:11:17;5.83;;;2.57;;
4106;SDS011;21906;50.812;7.132;2024-01-16T13:13:46;5.17;;;3.00;;
4106;SDS011;21906;50.812;7.132;2024-01-16T13:16:16;6.23;;;2.70;;
4106;SDS011;21906;50.812;7.132;2024-01-16T13:18:42;4.10;;;2.93;;
4106;SDS011;21906;50.812;7.132;2024-01-16T13:21:08;4.93;;;3.00;;
4106;SDS011;21906;50.812;7.132;2024-01-16T13:23:34;3.10;;;2.80;;
4106;SDS011;21906;50.812;7.132;2024-01-16T13:26:00;3.20;;;2.60;;
4106;SDS011;21906;50.812;7.132;2024-01-16T13:28:29;5.27;;;2.37;;
4106;SDS011;21906;50.812;7.132;2024-01-16T13:30:55;3.47;;;2.50;;
4106;SDS011;21906;50.812;7.132;2024-01-16T13:33:25;3.90;;;3.00;;
4106;SDS011;21906;50.812;7.132;2024-01-16T13:35:54;5.43;;;2.60;;
4106;SDS011;21906;50.812;7.132;2024-01-16T13:38:20;4.63;;;2.53;;
4106;SDS011;21906;50.812;7.132;2024-01-16T13:40:46;6.23;;;2.83;;
4106;SDS011;21906;50.812;7.132;2024-01-16T13:43:13;3.77;;;3.33;;
4106;SDS011;21906;50.812;7.132;2024-01-16T13:45:39;5.87;;;2.67;;
4106;SDS011;21906;50.812;7.132;2024-01-16T13:48:06;5.43;;;3.00;;
4106;SDS011;21906;50.812;7.132;2024-01-16T13:50:33;5.80;;;3.83;;
4106;SDS011;21906;50.812;7.132;2024-01-16T13:52:59;4.97;;;2.97;;
4106;SDS011;21906;50.812;7.132;2024-01-16T13:55:27;3.90;;;2.97;;
4106;SDS011;21906;50.812;7.132;2024-01-16T13:57:53;6.67;;;2.80;;
4106;SDS011;21906;50.812;7.132;2024-01-16T14:00:19;5.00;;;3.10;;
4106;SDS011;21906;50.812;7.132;2024-01-16T14:02:45;5.13;;;3.03;;
4106;SDS011;21906;50.812;7.132;2024-01-16T14:05:13;3.17;;;2.87;;
4106;SDS011;21906;50.812;7.132;2024-01-16T14:07:43;3.83;;;3.50;;
4106;SDS011;21906;50.812;7.132;2024-01-16T14:10:12;7.57;;;3.03;;
4106;SDS011;21906;50.812;7.132;2024-01-16T14:12:39;4.20;;;2.90;;
4106;SDS011;21906;50.812;7.132;2024-01-16T14:15:10;6.07;;;3.23;;
4106;SDS011;21906;50.812;7.132;2024-01-16T14:17:46;5.00;;;3.30;;
4106;SDS011;21906;50.812;7.132;2024-01-16T14:20:17;3.90;;;3.20;;
4106;SDS011;21906;50.812;7.132;2024-01-16T14:22:47;3.03;;;2.73;;
4106;SDS011;21906;50.812;7.132;2024-01-16T14:25:14;4.90;;;3.10;;
4106;SDS011;21906;50.812;7.132;2024-01-16T14:27:44;4.83;;;3.10;;
4106;SDS011;21906;50.812;7.132;2024-01-16T14:30:13;4.73;;;3.50;;
4106;SDS011;21906;50.812;7.132;2024-01-16T14:32:40;6.87;;;3.50;;
4106;SDS011;21906;50.812;7.132;2024-01-16T14:35:07;6.07;;;2.70;;
4106;SDS011;21906;50.812;7.132;2024-01-16T14:37:35;5.40;;;3.03;;
4106;SDS011;21906;50.812;7.132;2024-01-16T14:40:02;5.50;;;3.53;;
4106;SDS011;21906;50.812;7.132;2024-01-16T14:42:33;4.33;;;3.20;;
4106;SDS011;21906;50.812;7.132;2024-01-16T14:44:59;4.50;;;2.70;;
4106;SDS011;21906;50.812;7.132;2024-01-16T14:47:25;3.67;;;2.73;;
4106;SDS011;21906;50.812;7.132;2024-01-16T14:49:51;7.63;;;3.37;;
4106;SDS011;21906;50.812;7.132;2024-01-16T14:52:19;3.37;;;2.60;;
4106;SDS011;21906;50.812;7.132;2024-01-16T14:54:45;3.80;;;2.93;;
4106;SDS011;21906;50.812;7.132;2024-01-16T14:57:11;5.33;;;3.90;;
4106;SDS011;21906;50.812;7.132;2024-01-16T14:59:37;4.50;;;2.93;;
4106;SDS011;21906;50.812;7.132;2024-01-16T15:02:03;3.30;;;3.00;;
4106;SDS011;21906;50.812;7.132;2024-01-16T15:04:38;3.53;;;3.23;;
4106;SDS011;21906;50.812;7.132;2024-01-16T15:07:05;5.23;;;2.63;;
4106;SDS011;21906;50.812;7.132;2024-01-16T15:09:31;5.77;;;3.53;;
4106;SDS011;21906;50.812;7.132;2024-01-16T15:12:02;5.80;;;2.87;;
4106;SDS011;21906;50.812;7.132;2024-01-16T15:14:29;4.73;;;3.40;;
4106;SDS011;21906;50.812;7.132;2024-01-16T15:16:55;3.43;;;3.03;;